Time;durP1;ratioP1;P1;durP2;ratioP2;P2;SDS_P1;SDS_P2;PMS_P1;PMS_P2;Temp;Humidity;BMP_temperature;BMP_pressure;BME280_temperature;BME280_humidity;BME280_pressure;Samples;Min_cycle;Max_cycle;Signal;HPM_P1;HPM_P2
2023/12/04 00:00:08;;;;;;;14.30;6.90;;;-2.50;99.90;;;;;;4951416;28;20031;-74
2023/12/04 00:02:33;;;;;;;13.88;6.80;;;-2.50;99.90;;;;;;4958447;28;20405;-75
2023/12/04 00:04:59;;;;;;;13.68;6.35;;;-2.40;99.90;;;;;;4950804;28;20046;-74
2023/12/04 00:07:25;;;;;;;16.02;6.63;;;-2.40;99.90;;;;;;4954475;28;20031;-76
2023/12/04 00:09:50;;;;;;;10.07;5.30;;;-2.40;99.90;;;;;;4954054;28;20027;-74
2023/12/04 00:12:16;;;;;;;9.85;5.18;;;-2.30;99.90;;;;;;4955886;28;20035;-74
2023/12/04 00:14:41;;;;;;;11.50;5.68;;;-2.30;99.90;;;;;;4955814;28;20032;-74
2023/12/04 00:17:07;;;;;;;13.13;6.30;;;-2.20;99.90;;;;;;4954703;28;20023;-75
2023/12/04 00:19:32;;;;;;;12.43;5.95;;;-2.20;99.90;;;;;;4952765;28;20035;-74
2023/12/04 00:21:58;;;;;;;14.23;6.43;;;-2.20;99.90;;;;;;4953960;28;20075;-74
2023/12/04 00:24:23;;;;;;;12.20;5.72;;;-2.20;99.90;;;;;;4952375;28;20550;-74
2023/12/04 00:26:49;;;;;;;11.10;5.85;;;-2.10;99.90;;;;;;4956847;28;20911;-75
2023/12/04 00:29:15;;;;;;;13.00;6.28;;;-2.10;99.90;;;;;;4953185;28;20037;-74
2023/12/04 00:31:41;;;;;;;12.52;6.65;;;-2.10;99.90;;;;;;4953307;28;21580;-75
2023/12/04 00:34:07;;;;;;;13.15;6.90;;;-2.20;99.90;;;;;;4953024;28;20484;-74
2023/12/04 00:36:32;;;;;;;14.70;7.47;;;-2.20;99.90;;;;;;4951931;28;20253;-76
2023/12/04 00:38:58;;;;;;;17.65;8.35;;;-2.20;99.90;;;;;;4951281;28;20030;-75
2023/12/04 00:41:23;;;;;;;19.50;9.13;;;-2.20;99.90;;;;;;4953067;28;20046;-75
2023/12/04 00:43:49;;;;;;;18.63;8.68;;;-2.30;99.90;;;;;;4956616;28;20031;-75
2023/12/04 00:46:14;;;;;;;15.70;8.50;;;-2.30;99.90;;;;;;4954551;28;20450;-75
2023/12/04 00:48:40;;;;;;;16.70;8.90;;;-2.40;99.90;;;;;;4953719;28;20047;-75
2023/12/04 00:51:06;;;;;;;16.75;7.45;;;-2.50;99.90;;;;;;4935280;29;20101;-75
2023/12/04 00:53:31;;;;;;;18.50;9.25;;;-2.60;99.90;;;;;;4953252;28;20031;-75
2023/12/04 00:55:57;;;;;;;15.65;8.57;;;-2.60;99.90;;;;;;4938859;28;20023;-75
2023/12/04 00:58:23;;;;;;;15.30;7.85;;;-2.60;99.90;;;;;;4950545;28;20023;-75
2023/12/04 01:00:50;;;;;;;14.65;7.75;;;-2.60;99.90;;;;;;4942106;28;20031;-75
2023/12/04 01:03:16;;;;;;;18.00;7.95;;;-2.60;99.90;;;;;;4954239;28;20035;-74
2023/12/04 01:05:42;;;;;;;17.17;8.75;;;-2.60;99.90;;;;;;4952946;28;20062;-73
2023/12/04 01:08:07;;;;;;;17.90;7.82;;;-2.50;99.90;;;;;;4953670;28;20059;-74
2023/12/04 01:10:33;;;;;;;26.45;13.30;;;-2.50;99.90;;;;;;4949552;28;20070;-74
2023/12/04 01:12:59;;;;;;;30.05;12.90;;;-2.70;99.90;;;;;;4958494;28;20090;-74
2023/12/04 01:15:24;;;;;;;26.73;14.05;;;-2.80;99.90;;;;;;4954771;28;20136;-74
2023/12/04 01:17:50;;;;;;;27.17;13.13;;;-2.90;99.90;;;;;;4954191;28;20106;-75
2023/12/04 01:20:15;;;;;;;30.17;14.57;;;-3.00;99.90;;;;;;4957006;28;20265;-75
2023/12/04 01:22:41;;;;;;;31.63;15.00;;;-3.30;99.90;;;;;;4950821;28;20039;-74
2023/12/04 01:25:07;;;;;;;30.88;14.75;;;-3.40;99.90;;;;;;4952755;28;20530;-74
2023/12/04 01:27:35;;;;;;;31.88;15.70;;;-3.50;99.90;;;;;;4952641;28;20031;-75
2023/12/04 01:30:01;;;;;;;26.58;13.65;;;-3.40;99.90;;;;;;4956664;28;20031;-74
2023/12/04 01:32:27;;;;;;;28.23;14.98;;;-3.50;99.90;;;;;;4950234;28;20118;-73
2023/12/04 01:34:52;;;;;;;31.42;15.57;;;-3.60;99.90;;;;;;4950460;28;20106;-74
2023/12/04 01:37:18;;;;;;;30.73;15.25;;;-3.60;99.90;;;;;;4954006;28;20070;-76
2023/12/04 01:39:43;;;;;;;31.40;15.82;;;-3.60;99.90;;;;;;4954603;28;20019;-74
2023/12/04 01:42:10;;;;;;;32.45;15.05;;;-3.80;99.90;;;;;;4953031;28;20478;-74
2023/12/04 01:44:36;;;;;;;30.52;15.30;;;-3.80;99.90;;;;;;4955704;28;21528;-74
2023/12/04 01:47:03;;;;;;;34.13;14.95;;;-3.70;99.90;;;;;;4954603;28;20106;-74
2023/12/04 01:49:29;;;;;;;34.25;15.75;;;-3.70;99.90;;;;;;4952487;28;20505;-75
2023/12/04 01:51:55;;;;;;;34.25;15.23;;;-3.70;99.90;;;;;;4952978;28;20027;-74
2023/12/04 01:54:22;;;;;;;32.13;15.95;;;-3.70;99.90;;;;;;4955238;28;20018;-74
2023/12/04 01:56:47;;;;;;;29.50;15.48;;;-3.70;99.90;;;;;;4945497;28;20031;-75
2023/12/04 01:59:13;;;;;;;34.95;17.52;;;-3.70;99.90;;;;;;4952254;28;20023;-75
2023/12/04 02:01:40;;;;;;;36.33;17.17;;;-3.70;99.90;;;;;;4953725;28;20082;-75
2023/12/04 02:04:06;;;;;;;34.80;15.95;;;-3.60;99.90;;;;;;4956476;28;20027;-77
2023/12/04 02:06:31;;;;;;;31.50;16.58;;;-3.70;99.90;;;;;;4951522;28;20107;-76
2023/12/04 02:08:57;;;;;;;38.25;17.48;;;-3.60;99.90;;;;;;4955070;28;20119;-75
2023/12/04 02:11:23;;;;;;;33.25;16.30;;;-3.60;99.90;;;;;;4937242;28;20410;-75
2023/12/04 02:13:49;;;;;;;29.60;15.88;;;-3.60;99.90;;;;;;4957405;28;20027;-74
2023/12/04 02:16:16;;;;;;;34.00;16.25;;;-3.70;99.90;;;;;;4959916;28;20034;-75
2023/12/04 02:18:43;;;;;;;34.40;16.33;;;-3.70;99.90;;;;;;4960057;28;20029;-76
2023/12/04 02:21:08;;;;;;;33.08;15.80;;;-3.70;99.90;;;;;;4957562;28;20062;-75
2023/12/04 02:23:34;;;;;;;38.35;17.05;;;-3.70;99.90;;;;;;4952580;28;20066;-75
2023/12/04 02:26:08;;;;;;;33.72;16.27;;;-3.80;99.90;;;;;;4955485;28;20034;-75
2023/12/04 02:28:35;;;;;;;32.67;16.38;;;-3.80;99.90;;;;;;4956480;28;20478;-75
2023/12/04 02:31:04;;;;;;;35.05;15.63;;;-3.70;99.90;;;;;;4956922;28;20062;-75
2023/12/04 02:33:31;;;;;;;29.95;14.63;;;-3.70;99.90;;;;;;4957328;28;20026;-77
2023/12/04 02:35:59;;;;;;;29.30;14.68;;;-3.70;99.90;;;;;;4959992;28;20039;-74
2023/12/04 02:38:25;;;;;;;34.00;15.13;;;-3.70;99.90;;;;;;4950956;28;20457;-75
2023/12/04 02:40:51;;;;;;;33.92;16.30;;;-3.70;99.90;;;;;;4953512;28;20038;-75
2023/12/04 02:43:16;;;;;;;33.67;16.42;;;-3.70;99.90;;;;;;4954364;28;20040;-75
2023/12/04 02:45:42;;;;;;;31.48;14.93;;;-3.70;99.90;;;;;;4956769;28;20158;-74
2023/12/04 02:48:07;;;;;;;28.60;15.43;;;-3.70;99.90;;;;;;4961842;28;20031;-75
2023/12/04 02:50:33;;;;;;;31.02;14.35;;;-3.70;99.90;;;;;;4954808;28;20162;-75
2023/12/04 02:52:59;;;;;;;30.30;14.20;;;-3.80;99.90;;;;;;4957319;28;20031;-76
2023/12/04 02:55:24;;;;;;;31.63;14.55;;;-3.80;99.90;;;;;;4959823;28;20135;-75
2023/12/04 02:57:50;;;;;;;28.77;14.80;;;-3.80;99.90;;;;;;4938258;28;20026;-75
2023/12/04 03:00:15;;;;;;;31.90;15.10;;;-3.90;99.90;;;;;;4961289;28;20019;-74
2023/12/04 03:02:41;;;;;;;29.58;14.43;;;-3.90;99.90;;;;;;4960643;28;20033;-76
2023/12/04 03:05:07;;;;;;;28.30;13.57;;;-3.90;99.90;;;;;;4955315;28;20027;-75
2023/12/04 03:07:32;;;;;;;28.88;13.15;;;-3.90;99.90;;;;;;4954237;28;20027;-75
2023/12/04 03:09:58;;;;;;;26.05;13.80;;;-3.90;99.90;;;;;;4960943;28;20178;-76
2023/12/04 03:12:23;;;;;;;26.63;14.57;;;-3.90;99.90;;;;;;4955923;28;20031;-77
2023/12/04 03:14:49;;;;;;;27.88;14.18;;;-3.90;99.90;;;;;;4957825;28;20023;-76
2023/12/04 03:17:14;;;;;;;26.90;13.55;;;-3.90;99.90;;;;;;4963941;28;20118;-76
2023/12/04 03:19:40;;;;;;;30.75;14.00;;;-3.90;99.90;;;;;;4952085;28;20030;-76
2023/12/04 03:22:06;;;;;;;30.50;14.55;;;-4.00;99.90;;;;;;4958557;28;22365;-76
2023/12/04 03:24:31;;;;;;;25.92;13.25;;;-3.90;99.90;;;;;;4953774;28;20023;-77
2023/12/04 03:26:57;;;;;;;28.77;13.90;;;-3.90;99.90;;;;;;4956699;28;20031;-77
2023/12/04 03:29:22;;;;;;;27.85;13.13;;;-3.90;99.90;;;;;;4958732;28;20434;-77
2023/12/04 03:31:48;;;;;;;27.73;13.27;;;-4.00;99.90;;;;;;4956198;28;20102;-75
2023/12/04 03:34:13;;;;;;;25.40;12.95;;;-4.00;99.90;;;;;;4956182;28;20027;-77
2023/12/04 03:36:39;;;;;;;26.33;12.55;;;-3.90;99.90;;;;;;4936288;28;20403;-77
2023/12/04 03:39:05;;;;;;;27.55;12.95;;;-3.90;99.90;;;;;;4955007;28;20028;-78
2023/12/04 03:41:30;;;;;;;27.02;12.98;;;-3.90;99.90;;;;;;4952552;28;20035;-76
2023/12/04 03:43:56;;;;;;;26.33;13.52;;;-3.90;99.90;;;;;;4959112;28;20061;-77
2023/12/04 03:46:21;;;;;;;26.90;12.13;;;-3.90;99.90;;;;;;4951427;28;20066;-76
2023/12/04 03:48:47;;;;;;;24.85;13.15;;;-3.90;99.90;;;;;;4954182;28;20110;-75
2023/12/04 03:51:13;;;;;;;28.13;13.43;;;-3.90;99.90;;;;;;4956876;28;20027;-75
2023/12/04 03:53:38;;;;;;;24.17;12.60;;;-3.90;99.90;;;;;;4953790;28;20049;-75
2023/12/04 03:56:04;;;;;;;27.25;13.10;;;-3.90;99.90;;;;;;4952637;28;20090;-76
2023/12/04 03:58:30;;;;;;;29.50;13.35;;;-4.00;99.90;;;;;;4955559;28;20027;-74
2023/12/04 04:00:55;;;;;;;25.65;12.52;;;-4.00;99.90;;;;;;4952776;28;20031;-74
2023/12/04 04:03:21;;;;;;;25.35;12.30;;;-4.00;99.90;;;;;;4956576;28;20185;-77
2023/12/04 04:05:46;;;;;;;29.67;14.13;;;-3.90;99.90;;;;;;4940733;29;20086;-76
2023/12/04 04:08:12;;;;;;;27.52;14.20;;;-3.90;99.90;;;;;;4953761;28;20486;-76
2023/12/04 04:10:37;;;;;;;28.90;13.65;;;-3.80;99.90;;;;;;4954203;28;20094;-77
2023/12/04 04:13:03;;;;;;;23.55;11.75;;;-3.80;99.90;;;;;;4943485;28;20071;-74
2023/12/04 04:15:29;;;;;;;25.85;12.55;;;-3.80;99.90;;;;;;4954933;28;20034;-76
2023/12/04 04:17:54;;;;;;;30.13;12.40;;;-3.90;99.90;;;;;;4950806;28;20136;-74
2023/12/04 04:20:20;;;;;;;25.58;12.10;;;-3.80;99.90;;;;;;4956678;28;20019;-74
2023/12/04 04:22:48;;;;;;;24.63;11.73;;;-3.70;99.90;;;;;;4957050;28;20093;-76
2023/12/04 04:25:14;;;;;;;22.67;11.23;;;-3.70;99.90;;;;;;4955021;28;20041;-76
2023/12/04 04:27:39;;;;;;;21.83;11.57;;;-3.50;99.90;;;;;;4956643;28;20102;-75
2023/12/04 04:30:05;;;;;;;20.80;10.93;;;-3.60;99.90;;;;;;4956539;28;20038;-74
2023/12/04 04:32:31;;;;;;;18.63;10.02;;;-3.50;99.90;;;;;;4951640;28;20031;-75
2023/12/04 04:34:57;;;;;;;17.38;8.25;;;-3.50;99.90;;;;;;4956011;28;20445;-73
2023/12/04 04:37:23;;;;;;;11.32;6.13;;;-3.30;99.90;;;;;;4952582;28;20110;-75
2023/12/04 04:39:48;;;;;;;12.95;6.80;;;-3.30;99.90;;;;;;4957630;28;20080;-75
2023/12/04 04:42:14;;;;;;;11.80;5.88;;;-3.20;99.90;;;;;;4958748;28;20539;-75
2023/12/04 04:44:40;;;;;;;15.55;8.10;;;-3.10;99.90;;;;;;4958482;28;20038;-75
2023/12/04 04:47:05;;;;;;;27.58;11.13;;;-3.00;99.90;;;;;;4957741;28;20027;-75
2023/12/04 04:49:31;;;;;;;20.35;10.85;;;-3.00;99.90;;;;;;4954824;28;20083;-75
2023/12/04 04:51:57;;;;;;;21.95;11.65;;;-3.00;99.90;;;;;;4959992;28;20047;-76
2023/12/04 04:54:22;;;;;;;24.50;12.07;;;-3.00;99.90;;;;;;4957687;28;20035;-75
2023/12/04 04:56:48;;;;;;;24.35;11.43;;;-2.90;99.90;;;;;;4954109;28;20051;-75
2023/12/04 04:59:13;;;;;;;23.05;11.00;;;-2.90;99.90;;;;;;4959163;28;20027;-74
2023/12/04 05:01:39;;;;;;;22.58;12.10;;;-2.90;99.90;;;;;;4958589;28;20019;-74
2023/12/04 05:04:04;;;;;;;23.70;11.45;;;-2.90;99.90;;;;;;4961112;28;20096;-74
2023/12/04 05:06:30;;;;;;;24.25;11.32;;;-2.90;99.90;;;;;;4958375;28;20505;-75
2023/12/04 05:08:56;;;;;;;24.80;12.25;;;-2.90;99.90;;;;;;4954464;28;20043;-74
2023/12/04 05:11:22;;;;;;;23.25;10.27;;;-2.90;99.90;;;;;;4955958;28;20050;-76
2023/12/04 05:13:47;;;;;;;23.98;11.40;;;-2.80;99.90;;;;;;4958056;28;20039;-75
2023/12/04 05:16:13;;;;;;;21.80;11.40;;;-2.90;99.90;;;;;;4959250;28;20063;-75
2023/12/04 05:18:39;;;;;;;21.67;11.65;;;-2.80;99.90;;;;;;4955750;28;20186;-75
2023/12/04 05:21:11;;;;;;;23.27;11.50;;;-2.80;99.90;;;;;;4939796;28;20028;-73
2023/12/04 05:23:40;;;;;;;23.30;11.77;;;-2.90;99.90;;;;;;4955813;28;20035;-76
2023/12/04 05:26:06;;;;;;;22.35;11.27;;;-2.80;99.90;;;;;;4949288;28;20110;-75
2023/12/04 05:28:32;;;;;;;26.23;11.77;;;-2.90;99.90;;;;;;4954069;28;20090;-75
2023/12/04 05:30:58;;;;;;;25.67;12.57;;;-2.90;99.90;;;;;;4954726;28;20099;-76
2023/12/04 05:33:23;;;;;;;20.13;11.25;;;-2.90;99.90;;;;;;4955181;28;20454;-74
2023/12/04 05:35:51;;;;;;;20.98;10.63;;;-3.00;99.90;;;;;;4937936;28;20502;-74
2023/12/04 05:38:16;;;;;;;23.17;11.05;;;-3.10;99.90;;;;;;4956487;28;20034;-75
2023/12/04 05:40:42;;;;;;;22.95;11.82;;;-3.10;99.90;;;;;;4954474;28;20031;-75
2023/12/04 05:43:07;;;;;;;21.05;10.55;;;-3.00;99.90;;;;;;4954606;28;20406;-76
2023/12/04 05:45:33;;;;;;;21.35;11.02;;;-3.00;99.90;;;;;;4941601;28;20113;-76
2023/12/04 05:47:59;;;;;;;23.13;10.77;;;-3.00;99.90;;;;;;4953793;28;20031;-76
2023/12/04 05:50:24;;;;;;;20.85;10.27;;;-3.00;99.90;;;;;;4924880;29;20063;-76
2023/12/04 05:52:51;;;;;;;15.05;8.05;;;-2.90;99.90;;;;;;4946554;29;20110;-76
2023/12/04 05:55:16;;;;;;;13.95;6.97;;;-2.90;99.90;;;;;;4962433;28;20091;-76
2023/12/04 05:57:43;;;;;;;14.80;6.65;;;-2.80;99.90;;;;;;4954383;28;20067;-75
2023/12/04 06:00:12;;;;;;;10.63;5.53;;;-2.80;99.90;;;;;;4955738;28;20020;-75
2023/12/04 06:02:39;;;;;;;11.18;5.35;;;-2.70;99.90;;;;;;4958726;28;20111;-74
2023/12/04 06:05:05;;;;;;;10.27;5.68;;;-2.70;99.90;;;;;;4955483;29;20498;-74
2023/12/04 06:07:31;;;;;;;12.77;5.70;;;-2.60;99.90;;;;;;4939754;29;20016;-74
2023/12/04 06:09:57;;;;;;;10.00;5.50;;;-2.60;99.90;;;;;;4954300;29;20031;-74
2023/12/04 06:12:22;;;;;;;12.18;6.00;;;-2.50;99.90;;;;;;4952647;28;20024;-71
2023/12/04 06:14:48;;;;;;;11.63;5.70;;;-2.20;99.90;;;;;;4951507;28;20019;-73
2023/12/04 06:17:14;;;;;;;10.18;5.00;;;-1.90;99.90;;;;;;4956892;28;20020;-73
2023/12/04 06:19:39;;;;;;;10.30;5.40;;;-1.90;99.90;;;;;;4958636;28;20023;-77
2023/12/04 06:22:05;;;;;;;14.32;6.45;;;-1.80;99.90;;;;;;4957425;28;20081;-76
2023/12/04 06:24:31;;;;;;;14.63;8.30;;;-1.80;99.90;;;;;;4936988;29;20031;-75
2023/12/04 06:26:57;;;;;;;18.85;9.68;;;-1.80;99.90;;;;;;4954534;28;20625;-75
2023/12/04 06:29:24;;;;;;;21.73;10.05;;;-1.90;99.90;;;;;;4950393;28;20023;-76
2023/12/04 06:31:50;;;;;;;21.38;10.65;;;-1.90;99.90;;;;;;4951621;28;20066;-75
2023/12/04 06:34:16;;;;;;;23.27;10.55;;;-2.10;99.90;;;;;;4941460;29;20069;-76
2023/12/04 06:36:42;;;;;;;19.55;10.23;;;-2.20;99.90;;;;;;4955855;28;20023;-77
2023/12/04 06:39:11;;;;;;;25.70;11.90;;;-2.30;99.90;;;;;;4952121;28;20035;-76
2023/12/04 06:41:41;;;;;;;21.67;10.82;;;-2.30;99.90;;;;;;4952261;28;20047;-72
2023/12/04 06:44:08;;;;;;;22.65;11.82;;;-2.30;99.90;;;;;;4951056;28;20512;-77
2023/12/04 06:46:37;;;;;;;22.40;12.48;;;-2.40;99.90;;;;;;4954114;28;20027;-75
2023/12/04 06:49:06;;;;;;;28.02;12.35;;;-2.50;99.90;;;;;;4951957;28;20394;-75
2023/12/04 06:51:35;;;;;;;21.77;11.27;;;-2.60;99.90;;;;;;4954346;28;20027;-73
2023/12/04 06:54:00;;;;;;;23.67;11.75;;;-2.60;99.90;;;;;;4953523;28;20038;-74
2023/12/04 06:56:26;;;;;;;22.85;11.23;;;-2.80;99.90;;;;;;4937600;28;20031;-71
2023/12/04 06:58:51;;;;;;;22.05;11.27;;;-2.80;99.90;;;;;;4953459;28;20020;-76
2023/12/04 07:01:17;;;;;;;21.10;11.48;;;-2.80;99.90;;;;;;4956520;28;20031;-74
2023/12/04 07:03:43;;;;;;;22.58;11.13;;;-2.90;99.90;;;;;;4959193;28;20046;-75
2023/12/04 07:06:08;;;;;;;23.40;11.82;;;-2.90;99.90;;;;;;4936242;28;20030;-74
2023/12/04 07:08:34;;;;;;;24.27;12.95;;;-2.90;99.90;;;;;;4952760;28;20078;-75
2023/12/04 07:11:00;;;;;;;25.10;12.48;;;-2.90;99.90;;;;;;4957735;28;20402;-76
2023/12/04 07:13:26;;;;;;;25.75;11.88;;;-2.90;99.90;;;;;;4955315;28;20436;-75
2023/12/04 07:15:52;;;;;;;22.77;11.48;;;-3.00;99.90;;;;;;4943195;29;20563;-77
2023/12/04 07:18:17;;;;;;;24.90;11.90;;;-2.90;99.90;;;;;;4954933;28;20418;-74
2023/12/04 07:20:43;;;;;;;26.23;11.48;;;-2.90;99.90;;;;;;4954373;28;20091;-74
2023/12/04 07:23:08;;;;;;;26.55;11.82;;;-2.90;99.90;;;;;;4955700;28;20031;-75
2023/12/04 07:25:34;;;;;;;20.58;11.63;;;-2.80;99.90;;;;;;4951931;28;20031;-75
2023/12/04 07:27:59;;;;;;;29.58;12.35;;;-2.70;99.90;;;;;;4954447;28;20046;-75
2023/12/04 07:30:26;;;;;;;24.80;11.68;;;-2.80;99.90;;;;;;4952324;28;20039;-73
2023/12/04 07:32:52;;;;;;;25.10;12.27;;;-2.80;99.90;;;;;;4955716;28;20090;-75
2023/12/04 07:35:21;;;;;;;27.90;12.73;;;-2.70;99.90;;;;;;4956230;28;20027;-75
2023/12/04 07:37:46;;;;;;;26.25;13.35;;;-2.70;99.90;;;;;;4954909;28;20023;-76
2023/12/04 07:40:12;;;;;;;27.80;13.77;;;-2.80;99.90;;;;;;4939182;28;20094;-75
2023/12/04 07:42:38;;;;;;;25.15;13.10;;;-2.80;99.90;;;;;;4952067;28;20061;-76
2023/12/04 07:45:04;;;;;;;28.10;13.30;;;-2.70;99.90;;;;;;4956526;28;20031;-75
2023/12/04 07:47:30;;;;;;;24.42;12.43;;;-2.60;99.90;;;;;;4933189;28;20027;-74
2023/12/04 07:49:55;;;;;;;23.33;12.25;;;-2.70;99.90;;;;;;4956659;28;20514;-75
2023/12/04 07:52:21;;;;;;;24.42;12.15;;;-2.70;99.90;;;;;;4957328;28;20066;-76
2023/12/04 07:54:47;;;;;;;26.95;13.05;;;-2.70;99.90;;;;;;4955281;28;20086;-75
2023/12/04 07:57:12;;;;;;;24.40;12.52;;;-2.70;99.90;;;;;;4937797;28;20028;-76
2023/12/04 07:59:38;;;;;;;24.95;12.60;;;-2.70;99.90;;;;;;4952165;28;20107;-76
2023/12/04 08:02:04;;;;;;;26.00;12.75;;;-2.70;99.90;;;;;;4953094;28;20042;-75
2023/12/04 08:04:29;;;;;;;28.10;13.50;;;-2.60;99.90;;;;;;4958351;28;20030;-76
2023/12/04 08:06:55;;;;;;;26.50;12.68;;;-2.60;99.90;;;;;;4956841;28;20035;-76
2023/12/04 08:09:20;;;;;;;25.58;12.98;;;-2.70;99.90;;;;;;4956637;28;20538;-76
2023/12/04 08:11:46;;;;;;;26.58;14.05;;;-2.60;99.90;;;;;;4957954;28;20058;-76
2023/12/04 08:14:12;;;;;;;26.42;12.70;;;-2.60;99.90;;;;;;4950415;28;20031;-76
2023/12/04 08:16:37;;;;;;;27.77;12.60;;;-2.70;99.90;;;;;;4952212;28;20035;-76
2023/12/04 08:19:03;;;;;;;27.40;11.93;;;-2.80;99.90;;;;;;4953701;28;20034;-75
2023/12/04 08:21:29;;;;;;;27.35;12.20;;;-2.70;99.90;;;;;;4938870;28;20121;-75
2023/12/04 08:23:54;;;;;;;18.88;10.10;;;-2.60;99.90;;;;;;4952347;28;20419;-76
2023/12/04 08:26:24;;;;;;;20.50;10.27;;;-2.60;99.90;;;;;;4955983;28;20042;-76
2023/12/04 08:28:51;;;;;;;18.85;10.25;;;-2.50;99.90;;;;;;4954302;28;20623;-76
2023/12/04 08:31:17;;;;;;;22.08;9.95;;;-2.40;99.90;;;;;;4952786;28;20039;-75
2023/12/04 08:33:42;;;;;;;21.63;9.55;;;-2.30;99.90;;;;;;4959032;28;20046;-75
2023/12/04 08:36:09;;;;;;;20.60;10.02;;;-2.30;99.90;;;;;;4957541;28;20062;-76
2023/12/04 08:38:34;;;;;;;18.33;9.23;;;-2.20;99.90;;;;;;4950560;28;20085;-75
2023/12/04 08:41:00;;;;;;;18.17;9.20;;;-2.20;99.90;;;;;;4953402;28;20051;-75
2023/12/04 08:43:25;;;;;;;21.15;10.35;;;-2.10;99.90;;;;;;4953358;28;20039;-75
2023/12/04 08:45:51;;;;;;;20.85;10.00;;;-2.10;99.90;;;;;;4957411;28;20035;-72
2023/12/04 08:48:17;;;;;;;27.02;12.23;;;-2.00;99.90;;;;;;4957231;28;20505;-76
2023/12/04 08:50:42;;;;;;;24.02;11.75;;;-2.00;99.90;;;;;;4955198;28;20159;-76
2023/12/04 08:53:08;;;;;;;26.60;11.52;;;-2.00;99.90;;;;;;4955829;28;20089;-76
2023/12/04 08:55:33;;;;;;;24.02;11.50;;;-1.90;99.90;;;;;;4951704;28;20152;-76
2023/12/04 08:58:00;;;;;;;23.65;11.52;;;-1.90;99.90;;;;;;4959210;28;20022;-76
2023/12/04 09:00:25;;;;;;;21.83;11.18;;;-1.80;99.90;;;;;;4952411;28;20041;-76
2023/12/04 09:02:51;;;;;;;22.02;10.50;;;-1.70;99.90;;;;;;4953768;28;20027;-75
2023/12/04 09:05:16;;;;;;;23.60;11.57;;;-1.70;99.90;;;;;;4953569;28;20031;-75
2023/12/04 09:07:42;;;;;;;21.17;9.95;;;-1.60;99.90;;;;;;4952117;28;20043;-76
2023/12/04 09:10:08;;;;;;;25.13;10.77;;;-1.50;99.90;;;;;;4954953;28;20114;-76
2023/12/04 09:12:36;;;;;;;23.92;10.68;;;-1.40;99.90;;;;;;4953861;28;20371;-76
2023/12/04 09:15:02;;;;;;;23.67;11.90;;;-1.50;99.90;;;;;;4955722;28;20062;-76
2023/12/04 09:17:28;;;;;;;22.02;11.05;;;-1.40;99.90;;;;;;4955263;28;20133;-73
2023/12/04 09:19:54;;;;;;;20.55;11.35;;;-1.40;99.90;;;;;;4950283;28;20098;-77
2023/12/04 09:22:19;;;;;;;26.30;12.32;;;-1.40;99.90;;;;;;4953405;28;20090;-76
2023/12/04 09:24:45;;;;;;;29.33;13.18;;;-1.40;99.90;;;;;;4952185;28;20035;-76
2023/12/04 09:27:11;;;;;;;28.38;12.02;;;-1.30;99.90;;;;;;4953364;28;20050;-76
2023/12/04 09:29:37;;;;;;;24.00;11.88;;;-1.30;99.90;;;;;;4951350;28;20098;-77
2023/12/04 09:32:03;;;;;;;26.00;12.20;;;-1.20;99.90;;;;;;4953496;28;20031;-76
2023/12/04 09:34:29;;;;;;;23.52;10.98;;;-1.20;99.90;;;;;;4954115;28;20034;-75
2023/12/04 09:36:54;;;;;;;20.63;9.13;;;-1.10;99.90;;;;;;4956575;28;20034;-76
2023/12/04 09:39:20;;;;;;;17.70;9.07;;;-1.10;99.90;;;;;;4951524;28;20035;-76
2023/12/04 09:41:46;;;;;;;16.40;7.95;;;-1.00;99.90;;;;;;4950673;28;20074;-77
2023/12/04 09:44:12;;;;;;;21.02;9.38;;;-0.90;99.90;;;;;;4956308;28;20115;-76
2023/12/04 09:46:38;;;;;;;15.85;7.75;;;-0.90;99.90;;;;;;4951902;28;20118;-77
2023/12/04 09:49:04;;;;;;;17.15;7.97;;;-0.80;99.90;;;;;;4953330;28;20114;-77
2023/12/04 09:51:30;;;;;;;18.25;8.90;;;-0.90;99.90;;;;;;4953344;28;20027;-77
2023/12/04 09:53:57;;;;;;;20.17;9.13;;;-0.90;99.90;;;;;;4952558;28;20597;-76
2023/12/04 09:56:23;;;;;;;12.65;7.10;;;-1.00;99.90;;;;;;4954983;28;20086;-77
2023/12/04 09:58:57;;;;;;;13.73;7.32;;;-0.90;99.90;;;;;;4950626;28;20027;-76
2023/12/04 10:01:23;;;;;;;17.40;7.18;;;-0.90;99.90;;;;;;4927434;28;20070;-76
2023/12/04 10:03:50;;;;;;;16.38;7.35;;;-0.90;99.90;;;;;;4954005;28;20054;-77
2023/12/04 10:06:17;;;;;;;14.77;7.50;;;-0.80;99.90;;;;;;4951230;28;20039;-77
2023/12/04 10:08:44;;;;;;;12.45;6.45;;;-0.80;99.90;;;;;;4952780;28;20087;-76
2023/12/04 10:11:10;;;;;;;15.50;6.85;;;-0.80;99.90;;;;;;4936258;28;20042;-76
2023/12/04 10:13:36;;;;;;;15.02;6.43;;;-0.80;99.90;;;;;;4949711;28;20031;-75
2023/12/04 10:16:02;;;;;;;12.38;6.70;;;-0.70;99.90;;;;;;4955713;28;20046;-75
2023/12/04 10:18:30;;;;;;;13.70;6.07;;;-0.60;99.90;;;;;;4953727;28;20106;-75
2023/12/04 10:20:56;;;;;;;13.98;6.35;;;-0.60;99.90;;;;;;4954483;28;20047;-75
2023/12/04 10:23:23;;;;;;;13.52;6.50;;;-0.50;99.90;;;;;;4949067;28;20034;-76
2023/12/04 10:25:51;;;;;;;11.95;6.50;;;-0.40;99.90;;;;;;4952816;28;20054;-75
2023/12/04 10:28:18;;;;;;;12.45;7.05;;;-0.40;99.90;;;;;;4951021;28;20387;-76
2023/12/04 10:30:45;;;;;;;16.55;7.80;;;-0.30;99.90;;;;;;4951197;28;20043;-74
2023/12/04 10:33:12;;;;;;;16.80;8.73;;;-0.30;99.90;;;;;;4957441;28;20023;-76
2023/12/04 10:35:38;;;;;;;14.65;7.50;;;-0.20;99.90;;;;;;4953644;28;21951;-76
2023/12/04 10:38:05;;;;;;;18.23;8.80;;;-0.20;99.90;;;;;;4953947;28;20467;-76
2023/12/04 10:40:32;;;;;;;19.15;7.68;;;-0.20;99.90;;;;;;4955553;28;20628;-76
2023/12/04 10:43:14;;;;;;;14.38;8.27;;;-0.10;99.90;;;;;;4953334;28;20398;-77
2023/12/04 10:45:41;;;;;;;19.70;9.00;;;-0.20;99.90;;;;;;4955295;28;20030;-77
2023/12/04 10:48:08;;;;;;;19.77;9.25;;;-0.20;99.90;;;;;;4955003;28;20031;-77
2023/12/04 10:50:35;;;;;;;17.60;8.75;;;-0.20;99.90;;;;;;4959859;28;20042;-76
2023/12/04 10:53:07;;;;;;;12.57;8.18;;;-0.20;99.90;;;;;;4954898;28;20081;-76
2023/12/04 10:55:34;;;;;;;21.77;9.82;;;-0.20;99.90;;;;;;4937499;28;20027;-75
2023/12/04 10:58:05;;;;;;;21.33;9.63;;;-0.10;99.90;;;;;;4958921;28;20019;-74
2023/12/04 11:00:33;;;;;;;16.30;8.60;;;-0.10;99.90;;;;;;4932653;29;20073;-75
2023/12/04 11:03:08;;;;;;;20.83;8.85;;;-0.10;99.90;;;;;;4956350;28;20042;-75
2023/12/04 11:05:39;;;;;;;17.15;8.98;;;0.00;99.90;;;;;;4955693;28;20411;-74
2023/12/04 11:08:11;;;;;;;16.70;9.20;;;0.00;99.90;;;;;;4952781;28;20026;-74
2023/12/04 11:11:02;;;;;;;19.13;10.27;;;-0.10;99.90;;;;;;4937066;28;20031;-74
2023/12/04 11:13:30;;;;;;;19.73;9.63;;;-0.10;99.90;;;;;;4958840;28;20053;-75
2023/12/04 11:16:33;;;;;;;20.73;9.23;;;0.00;99.90;;;;;;4950960;28;20035;-76
2023/12/04 11:19:27;;;;;;;19.85;9.75;;;0.10;99.90;;;;;;4919245;28;20035;-74
2023/12/04 11:21:55;;;;;;;18.55;9.70;;;0.10;99.90;;;;;;4957668;28;20062;-74
2023/12/04 11:24:21;;;;;;;18.95;9.48;;;0.20;99.90;;;;;;4950480;28;20087;-74
2023/12/04 11:26:47;;;;;;;19.23;9.10;;;0.20;99.90;;;;;;4956910;28;20095;-74
2023/12/04 11:29:14;;;;;;;18.80;9.75;;;0.30;99.90;;;;;;4956370;28;20381;-74
2023/12/04 11:31:40;;;;;;;22.17;10.85;;;0.40;99.90;;;;;;4953809;28;20058;-75
2023/12/04 11:34:09;;;;;;;21.52;10.52;;;0.40;99.90;;;;;;4949528;28;20027;-75
2023/12/04 11:36:35;;;;;;;20.13;9.52;;;0.60;99.90;;;;;;4952880;28;20027;-75
2023/12/04 11:39:02;;;;;;;21.33;9.98;;;0.70;99.90;;;;;;4957201;28;20043;-75
2023/12/04 11:41:30;;;;;;;18.80;9.80;;;0.80;99.90;;;;;;4956336;28;20077;-75
2023/12/04 11:43:56;;;;;;;20.10;10.18;;;0.90;99.90;;;;;;4933314;28;20090;-75
2023/12/04 11:46:25;;;;;;;19.85;9.60;;;0.90;99.90;;;;;;4951605;28;20184;-74
2023/12/04 11:48:53;;;;;;;19.30;9.93;;;0.90;99.90;;;;;;4951605;28;20038;-75
2023/12/04 11:51:47;;;;;;;18.60;9.85;;;0.80;99.90;;;;;;4935129;28;20042;-74
2023/12/04 11:54:17;;;;;;;21.15;10.60;;;0.80;99.90;;;;;;4953328;28;20364;-75
2023/12/04 11:57:10;;;;;;;19.58;10.68;;;0.80;99.90;;;;;;4956120;28;20114;-75
2023/12/04 11:59:38;;;;;;;16.25;9.57;;;0.80;99.90;;;;;;4949998;28;20027;-74
2023/12/04 12:02:08;;;;;;;19.17;10.80;;;0.80;99.90;;;;;;4951587;28;20031;-74
2023/12/04 12:04:33;;;;;;;23.48;11.75;;;0.80;99.90;;;;;;4957595;28;20031;-77
2023/12/04 12:07:02;;;;;;;22.30;11.70;;;0.80;99.90;;;;;;4955405;28;20514;-75
2023/12/04 12:09:32;;;;;;;20.45;11.15;;;0.80;99.90;;;;;;4953644;28;20031;-75
2023/12/04 12:12:02;;;;;;;20.77;10.82;;;0.90;99.90;;;;;;4956280;28;20039;-75
2023/12/04 12:14:29;;;;;;;23.52;11.95;;;1.00;99.90;;;;;;4951189;28;20038;-75
2023/12/04 12:16:55;;;;;;;22.35;11.90;;;1.10;99.90;;;;;;4951240;28;20035;-75
2023/12/04 12:19:21;;;;;;;23.45;12.25;;;1.20;99.90;;;;;;4956855;28;20027;-74
2023/12/04 12:21:49;;;;;;;22.02;11.55;;;1.20;99.90;;;;;;4951489;28;20049;-76
2023/12/04 12:24:14;;;;;;;24.63;12.90;;;1.20;99.90;;;;;;4953401;28;20050;-76
2023/12/04 12:26:40;;;;;;;22.40;12.77;;;1.30;99.90;;;;;;4951961;28;20043;-76